Home Previsioni Grafici Avvisi Live Satellite Webcam Min e Max Mappe Metar Effemeridi Terremoti Info Glossario

Report METAR

 

LIEB - Cape Bellavista, Italy
Distance from station: SE 54km
Dati ricevuti: 11/12/2017 18:55
Few Clouds
Few Clouds
 Vento da SO
Vento: SO 33 km/h, Raffica: 54 km/h
Temperatura: 16°C
P.to Rugiada: 12°C
Umidità: 77%
Barometro: 1003 hPa
Nuvole: Few Clouds
Visibility: 10 km
Cloud details: Few Clouds 1219 m
2017/12/11 17:55 LIEB 111755Z 22018G29KT 9999 FEW040 16/12 Q1003 RMK BKN QUK / QUL / VIS MAR 20 KM MON INVIS VIS MIN 9999
LIEO - Olbia/Costa Smer, Italy
Distance from station: NNE 70km
Dati ricevuti: 11/12/2017 19:20
Few Clouds
Few Clouds
 Vento da SO
Vento: SO 9 km/h
Temperatura: 19°C
P.to Rugiada: 5°C
Umidità: 40%
Barometro: 1002 hPa
Nuvole: Few Clouds
Visibility: 10 km
Cloud details: Few Clouds 1219 m
2017/12/11 18:20 LIEO 111820Z 22005KT 190V260 9999 FEW040 19/05 Q1002
 
LIEA - Alghero, Italy
Distance from station: ONO 94km
Dati ricevuti: 11/12/2017 19:20
Few Clouds
Few Clouds
 Vento da S
Vento: S 46 km/h, Raffica: 69 km/h
Temperatura: 18°C
P.to Rugiada: 10°C
Umidità: 60%
Barometro: 1001 hPa
Nuvole: Few Clouds
Visibility: 10 km
Cloud details: Few Clouds 1219 m
2017/12/11 18:20 LIEA 111820Z 19025G37KT 9999 FEW040 18/10 Q1001
LIED - Decimomannu(It-A, Italy
Distance from station: SSO 107km
Dati ricevuti: 11/12/2017 18:55
Molto nuvoloso
Molto nuvoloso
 Vento da SE
Vento: SE 26 km/h
Temperatura: 16°C
P.to Rugiada: 14°C
Umidità: 88%
Barometro: 1004 hPa
Nuvole: Molto nuvoloso
Visibility: 10 km
Cloud details: Few Clouds 610 m
Molto nuvoloso 1829 m
2017/12/11 17:55 LIED 111755Z 13014KT 9999 FEW020 BKN060 16/14 Q1004 RMK OVC VIS MIN 9999 WIND THR35 13014KT WIND THR17 /////KT BLU
 
LIEE - Cagliari/Elmas(A, Italy
Distance from station: S 116km
Dati ricevuti: 11/12/2017 19:20
Sereno
Sereno
 Vento da E
Vento: E 28 km/h
Temperatura: 16°C
P.to Rugiada: 13°C
Umidità: 83%
Barometro: 1005 hPa
Summary: Sereno
Visibility: superiore a 10 km
2017/12/11 18:20 LIEE 111820Z 09015KT CAVOK 16/13 Q1005
LIEC - Cape Carbonara, Italy
Distance from station: S 133km
Dati ricevuti: 11/12/2017 18:55
Few Clouds
Few Clouds
 Vento da S
Vento: S 37 km/h
Temperatura: 16°C
P.to Rugiada: 12°C
Umidità: 77%
Barometro: 1005 hPa
Nuvole: Few Clouds
Visibility: 10 km
Cloud details: Few Clouds 610 m
2017/12/11 17:55 LIEC 111755Z 18020KT 9999 FEW020 16/12 Q1005 RMK BKN SCT070 QUK / QUL / VIS MAR 15 KM VIS MIN 9999
 
LFKF - Figari (aut), France
Distance from station: N 137km
Dati ricevuti: 11/12/2017 19:30
Coperto
Coperto
 Vento da OSO
Vento: OSO 11 km/h
Temperatura: 17°C
P.to Rugiada: 10°C
Umidità: 64%
Barometro: 1001 hPa
Nuvole: Coperto
Visibility: 10 km
Cloud details: Coperto 2316 m
2017/12/11 18:30 LFKF 111830Z AUTO 25006KT 9999 OVC076 17/10 Q1001 NOSIG
LFKS - Solenzara (fafb), France
Distance from station: N 182km
Dati ricevuti: 11/12/2017 19:30
Sereno
Sereno
 Vento da SSO
Vento: SSO 20 km/h
Temperatura: 20°C
P.to Rugiada: 5°C
Umidità: 38%
Barometro: 999 hPa
Summary: Sereno
Visibility: superiore a 10 km
2017/12/11 18:30 LFKS 111830Z AUTO 20011KT 170V240 CAVOK 20/05 Q0999